PWSweather.com
Personal Weather Stations
Station Observations
KIDNAMPA57
Canyon County Idaho, Nampa, ID 83687

Canyon County IdahoNampa, ID 83687

Lat: 43.587235, Lon: -116.49831979999999

Elevation: 2615

Station Type: Davis Vantage Pro 2

www.rockinglweather.com

High Low Average
Temperature 82.9°F28.3°C 54.8°F12.7°C 68.1°F20.1°C
Dew Point 58.9°F14.9°C 44.7°F7.1°C 50.6°F10.3°C
Winds 17.0 mph 27.4 kmh Calm Calm 6.0 mph W9.7 kmh W
Wind Gusts 21.0 mph33.8 kmh 3.0 mph4.8 kmh 14.0 mph22.5 kmh
Humidity 93% 34% 57%
Pressure 30.02 in1016.6 mb 29.87 in1011.5 mb -
Precipitation 0.00 in0.0 mm - -
Hour Temp Dew Point Humidity Winds Wind Gusts Pressure Precip Precip Rate Daily Precip Total
12:00 AM 60.0°F15.6°C 51.3°F10.7°C 73% 2.0 mph NW3.2 kmh NW 8.0 mph12.9 kmh 29.94 in1013.9 mb 0.00 in0.0 mm 0.00 in0.0 mm 0.00 in0.0 mm
12:05 AM 59.9°F15.5°C 50.9°F10.5°C 72% 6.0 mph NW9.7 kmh NW 8.0 mph12.9 kmh 29.95 in1014.2 mb 0.00 in0.0 mm 0.00 in0.0 mm 0.00 in0.0 mm
12:10 AM 59.8°F15.4°C 50.4°F10.2°C 71% 2.0 mph NW3.2 kmh NW 8.0 mph12.9 kmh 29.95 in1014.2 mb 0.00 in0.0 mm 0.00 in0.0 mm 0.00 in0.0 mm
12:15 AM 59.7°F15.4°C 50.3°F10.2°C 71% 8.0 mph WNW12.9 kmh WNW 9.0 mph14.5 kmh 29.95 in1014.2 mb 0.00 in0.0 mm 0.00 in0.0 mm 0.00 in0.0 mm
12:20 AM 59.7°F15.4°C 50.3°F10.2°C 71% 9.0 mph NW14.5 kmh NW 9.0 mph14.5 kmh 29.95 in1014.2 mb 0.00 in0.0 mm 0.00 in0.0 mm 0.00 in0.0 mm
12:25 AM 59.8°F15.4°C 50.4°F10.2°C 71% 8.0 mph NW12.9 kmh NW 10.0 mph16.1 kmh 29.95 in1014.2 mb 0.00 in0.0 mm 0.00 in0.0 mm 0.00 in0.0 mm
12:30 AM 59.8°F15.4°C 50.4°F10.2°C 71% 2.0 mph WNW3.2 kmh WNW 10.0 mph16.1 kmh 29.95 in1014.2 mb 0.00 in0.0 mm 0.00 in0.0 mm 0.00 in0.0 mm
12:35 AM 59.7°F15.4°C 50.3°F10.2°C 71% 4.0 mph NW6.4 kmh NW 7.0 mph11.3 kmh 29.95 in1014.2 mb 0.00 in0.0 mm 0.00 in0.0 mm 0.00 in0.0 mm
12:40 AM 59.7°F15.4°C 50.3°F10.2°C 71% 4.0 mph W6.4 kmh W 7.0 mph11.3 kmh 29.95 in1014.2 mb 0.00 in0.0 mm 0.00 in0.0 mm 0.00 in0.0 mm
12:45 AM 59.5°F15.3°C 49.7°F9.8°C 70% 2.0 mph NW3.2 kmh NW 8.0 mph12.9 kmh 29.95 in1014.2 mb 0.00 in0.0 mm 0.00 in0.0 mm 0.00 in0.0 mm
12:50 AM 59.3°F15.2°C 49.9°F9.9°C 71% 2.0 mph WNW3.2 kmh WNW 8.0 mph12.9 kmh 29.94 in1013.9 mb 0.00 in0.0 mm 0.00 in0.0 mm 0.00 in0.0 mm
12:55 AM 59.0°F15.0°C 49.6°F9.8°C 71% 5.0 mph NW8.0 kmh NW 8.0 mph12.9 kmh 29.94 in1013.9 mb 0.00 in0.0 mm 0.00 in0.0 mm 0.00 in0.0 mm
01:00 AM 58.8°F14.9°C 49.8°F9.9°C 72% 8.0 mph NW12.9 kmh NW 11.0 mph17.7 kmh 29.94 in1013.9 mb 0.00 in0.0 mm 0.00 in0.0 mm 0.00 in0.0 mm
01:05 AM 58.8°F14.9°C 49.4°F9.7°C 71% 4.0 mph W6.4 kmh W 10.0 mph16.1 kmh 29.94 in1013.9 mb 0.00 in0.0 mm 0.00 in0.0 mm 0.00 in0.0 mm
01:10 AM 58.9°F14.9°C 49.5°F9.7°C 71% 3.0 mph W4.8 kmh W 10.0 mph16.1 kmh 29.94 in1013.9 mb 0.00 in0.0 mm 0.00 in0.0 mm 0.00 in0.0 mm
01:15 AM 58.9°F14.9°C 49.2°F9.6°C 70% 7.0 mph NW11.3 kmh NW 12.0 mph19.3 kmh 29.94 in1013.9 mb 0.00 in0.0 mm 0.00 in0.0 mm 0.00 in0.0 mm
01:20 AM 58.8°F14.9°C 49.1°F9.5°C 70% 6.0 mph NW9.7 kmh NW 12.0 mph19.3 kmh 29.94 in1013.9 mb 0.00 in0.0 mm 0.00 in0.0 mm 0.00 in0.0 mm
01:25 AM 58.7°F14.8°C 49.0°F9.4°C 70% 6.0 mph NW9.7 kmh NW 12.0 mph19.3 kmh 29.94 in1013.9 mb 0.00 in0.0 mm 0.00 in0.0 mm 0.00 in0.0 mm
01:30 AM 58.7°F14.8°C 48.6°F9.2°C 69% 10.0 mph WNW16.1 kmh WNW 13.0 mph20.9 kmh 29.94 in1013.9 mb 0.00 in0.0 mm 0.00 in0.0 mm 0.00 in0.0 mm
01:35 AM 58.8°F14.9°C 48.7°F9.3°C 69% 3.0 mph W4.8 kmh W 11.0 mph17.7 kmh 29.94 in1013.9 mb 0.00 in0.0 mm 0.00 in0.0 mm 0.00 in0.0 mm
01:40 AM 58.7°F14.8°C 48.6°F9.2°C 69% 6.0 mph WNW9.7 kmh WNW 11.0 mph17.7 kmh 29.94 in1013.9 mb 0.00 in0.0 mm 0.00 in0.0 mm 0.00 in0.0 mm
01:45 AM 58.7°F14.8°C 48.6°F9.2°C 69% 5.0 mph WNW8.0 kmh WNW 12.0 mph19.3 kmh 29.94 in1013.9 mb 0.00 in0.0 mm 0.00 in0.0 mm 0.00 in0.0 mm
01:50 AM 58.6°F14.8°C 48.5°F9.2°C 69% 6.0 mph W9.7 kmh W 13.0 mph20.9 kmh 29.93 in1013.5 mb 0.00 in0.0 mm 0.00 in0.0 mm 0.00 in0.0 mm
01:55 AM 58.6°F14.8°C 48.1°F8.9°C 68% 8.0 mph WNW12.9 kmh WNW 13.0 mph20.9 kmh 29.94 in1013.9 mb 0.00 in0.0 mm 0.00 in0.0 mm 0.00 in0.0 mm
02:00 AM 58.5°F14.7°C 48.4°F9.1°C 69% 4.0 mph WNW6.4 kmh WNW 13.0 mph20.9 kmh 29.94 in1013.9 mb 0.00 in0.0 mm 0.00 in0.0 mm 0.00 in0.0 mm
02:05 AM 58.4°F14.7°C 48.3°F9.1°C 69% 4.0 mph NW6.4 kmh NW 11.0 mph17.7 kmh 29.94 in1013.9 mb 0.00 in0.0 mm 0.00 in0.0 mm 0.00 in0.0 mm
02:10 AM 58.4°F14.7°C 48.3°F9.1°C 69% 6.0 mph NW9.7 kmh NW 11.0 mph17.7 kmh 29.94 in1013.9 mb 0.00 in0.0 mm 0.00 in0.0 mm 0.00 in0.0 mm
02:15 AM 58.3°F14.6°C 48.6°F9.2°C 70% 3.0 mph WNW4.8 kmh WNW 11.0 mph17.7 kmh 29.94 in1013.9 mb 0.00 in0.0 mm 0.00 in0.0 mm 0.00 in0.0 mm
02:20 AM 58.1°F14.5°C 48.4°F9.1°C 70% 5.0 mph W8.0 kmh W 11.0 mph17.7 kmh 29.94 in1013.9 mb 0.00 in0.0 mm 0.00 in0.0 mm 0.00 in0.0 mm
02:25 AM 57.9°F14.4°C 48.2°F9.0°C 70% 3.0 mph WNW4.8 kmh WNW 11.0 mph17.7 kmh 29.93 in1013.5 mb 0.00 in0.0 mm 0.00 in0.0 mm 0.00 in0.0 mm
02:30 AM 57.8°F14.3°C 48.5°F9.2°C 71% 7.0 mph WNW11.3 kmh WNW 13.0 mph20.9 kmh 29.93 in1013.5 mb 0.00 in0.0 mm 0.00 in0.0 mm 0.00 in0.0 mm
02:35 AM 57.8°F14.3°C 48.5°F9.2°C 71% 4.0 mph NW6.4 kmh NW 8.0 mph12.9 kmh 29.93 in1013.5 mb 0.00 in0.0 mm 0.00 in0.0 mm 0.00 in0.0 mm
02:40 AM 57.7°F14.3°C 48.4°F9.1°C 71% 5.0 mph W8.0 kmh W 10.0 mph16.1 kmh 29.93 in1013.5 mb 0.00 in0.0 mm 0.00 in0.0 mm 0.00 in0.0 mm
02:45 AM 57.6°F14.2°C 48.3°F9.1°C 71% 5.0 mph NW8.0 kmh NW 10.0 mph16.1 kmh 29.93 in1013.5 mb 0.00 in0.0 mm 0.00 in0.0 mm 0.00 in0.0 mm
02:50 AM 57.6°F14.2°C 48.3°F9.1°C 71% 7.0 mph NW11.3 kmh NW 10.0 mph16.1 kmh 29.94 in1013.9 mb 0.00 in0.0 mm 0.00 in0.0 mm 0.00 in0.0 mm
02:55 AM 57.5°F14.2°C 48.2°F9.0°C 71% 2.0 mph W3.2 kmh W 10.0 mph16.1 kmh 29.94 in1013.9 mb 0.00 in0.0 mm 0.00 in0.0 mm 0.00 in0.0 mm
03:00 AM 57.5°F14.2°C 48.2°F9.0°C 71% 5.0 mph WNW8.0 kmh WNW 11.0 mph17.7 kmh 29.94 in1013.9 mb 0.00 in0.0 mm 0.00 in0.0 mm 0.00 in0.0 mm
03:05 AM 57.4°F14.1°C 48.1°F8.9°C 71% 3.0 mph W4.8 kmh W 8.0 mph12.9 kmh 29.94 in1013.9 mb 0.00 in0.0 mm 0.00 in0.0 mm 0.00 in0.0 mm
03:10 AM 57.4°F14.1°C 48.1°F8.9°C 71% 6.0 mph NW9.7 kmh NW 11.0 mph17.7 kmh 29.94 in1013.9 mb 0.00 in0.0 mm 0.00 in0.0 mm 0.00 in0.0 mm
03:15 AM 57.2°F14.0°C 48.3°F9.1°C 72% 7.0 mph W11.3 kmh W 11.0 mph17.7 kmh 29.94 in1013.9 mb 0.00 in0.0 mm 0.00 in0.0 mm 0.00 in0.0 mm
03:20 AM 57.1°F13.9°C 48.2°F9.0°C 72% 5.0 mph NW8.0 kmh NW 12.0 mph19.3 kmh 29.94 in1013.9 mb 0.00 in0.0 mm 0.00 in0.0 mm 0.00 in0.0 mm
03:25 AM 57.0°F13.9°C 48.1°F8.9°C 72% 4.0 mph NW6.4 kmh NW 12.0 mph19.3 kmh 29.94 in1013.9 mb 0.00 in0.0 mm 0.00 in0.0 mm 0.00 in0.0 mm
03:30 AM 56.9°F13.8°C 48.0°F8.9°C 72% 4.0 mph WNW6.4 kmh WNW 12.0 mph19.3 kmh 29.94 in1013.9 mb 0.00 in0.0 mm 0.00 in0.0 mm 0.00 in0.0 mm
03:35 AM 56.9°F13.8°C 48.0°F8.9°C 72% 6.0 mph NW9.7 kmh NW 15.0 mph24.1 kmh 29.94 in1013.9 mb 0.00 in0.0 mm 0.00 in0.0 mm 0.00 in0.0 mm
03:40 AM 57.0°F13.9°C 47.7°F8.7°C 71% 4.0 mph WNW6.4 kmh WNW 15.0 mph24.1 kmh 29.95 in1014.2 mb 0.00 in0.0 mm 0.00 in0.0 mm 0.00 in0.0 mm
03:45 AM 57.0°F13.9°C 47.7°F8.7°C 71% 9.0 mph NW14.5 kmh NW 15.0 mph24.1 kmh 29.95 in1014.2 mb 0.00 in0.0 mm 0.00 in0.0 mm 0.00 in0.0 mm
03:50 AM 57.0°F13.9°C 47.7°F8.7°C 71% 6.0 mph NW9.7 kmh NW 15.0 mph24.1 kmh 29.95 in1014.2 mb 0.00 in0.0 mm 0.00 in0.0 mm 0.00 in0.0 mm
03:55 AM 56.9°F13.8°C 47.6°F8.7°C 71% 5.0 mph WNW8.0 kmh WNW 15.0 mph24.1 kmh 29.95 in1014.2 mb 0.00 in0.0 mm 0.00 in0.0 mm 0.00 in0.0 mm
04:00 AM 56.9°F13.8°C 47.6°F8.7°C 71% 6.0 mph W9.7 kmh W 15.0 mph24.1 kmh 29.95 in1014.2 mb 0.00 in0.0 mm 0.00 in0.0 mm 0.00 in0.0 mm
04:05 AM 56.8°F13.8°C 47.1°F8.4°C 70% 5.0 mph W8.0 kmh W 11.0 mph17.7 kmh 29.95 in1014.2 mb 0.00 in0.0 mm 0.00 in0.0 mm 0.00 in0.0 mm
04:10 AM 56.7°F13.7°C 47.0°F8.3°C 70% 5.0 mph WNW8.0 kmh WNW 12.0 mph19.3 kmh 29.95 in1014.2 mb 0.00 in0.0 mm 0.00 in0.0 mm 0.00 in0.0 mm
04:15 AM 56.6°F13.7°C 46.9°F8.3°C 70% 10.0 mph W16.1 kmh W 13.0 mph20.9 kmh 29.95 in1014.2 mb 0.00 in0.0 mm 0.00 in0.0 mm 0.00 in0.0 mm
04:20 AM 56.6°F13.7°C 46.6°F8.1°C 69% 7.0 mph NW11.3 kmh NW 16.0 mph25.7 kmh 29.95 in1014.2 mb 0.00 in0.0 mm 0.00 in0.0 mm 0.00 in0.0 mm
04:25 AM 56.5°F13.6°C 46.5°F8.1°C 69% 5.0 mph NW8.0 kmh NW 16.0 mph25.7 kmh 29.95 in1014.2 mb 0.00 in0.0 mm 0.00 in0.0 mm 0.00 in0.0 mm
04:30 AM 56.4°F13.6°C 46.4°F8.0°C 69% 5.0 mph W8.0 kmh W 16.0 mph25.7 kmh 29.95 in1014.2 mb 0.00 in0.0 mm 0.00 in0.0 mm 0.00 in0.0 mm
04:35 AM 56.2°F13.4°C 46.2°F7.9°C 69% 8.0 mph NW12.9 kmh NW 13.0 mph20.9 kmh 29.95 in1014.2 mb 0.00 in0.0 mm 0.00 in0.0 mm 0.00 in0.0 mm
04:40 AM 56.1°F13.4°C 46.1°F7.8°C 69% 4.0 mph W6.4 kmh W 14.0 mph22.5 kmh 29.95 in1014.2 mb 0.00 in0.0 mm 0.00 in0.0 mm 0.00 in0.0 mm
04:45 AM 56.0°F13.3°C 46.0°F7.8°C 69% 4.0 mph NW6.4 kmh NW 14.0 mph22.5 kmh 29.96 in1014.6 mb 0.00 in0.0 mm 0.00 in0.0 mm 0.00 in0.0 mm
04:50 AM 55.9°F13.3°C 45.9°F7.7°C 69% 8.0 mph NW12.9 kmh NW 14.0 mph22.5 kmh 29.96 in1014.6 mb 0.00 in0.0 mm 0.00 in0.0 mm 0.00 in0.0 mm
04:55 AM 55.7°F13.2°C 46.1°F7.8°C 70% 6.0 mph WNW9.7 kmh WNW 14.0 mph22.5 kmh 29.96 in1014.6 mb 0.00 in0.0 mm 0.00 in0.0 mm 0.00 in0.0 mm
05:00 AM 55.7°F13.2°C 46.1°F7.8°C 70% 4.0 mph NW6.4 kmh NW 14.0 mph22.5 kmh 29.96 in1014.6 mb 0.00 in0.0 mm 0.00 in0.0 mm 0.00 in0.0 mm
05:05 AM 55.6°F13.1°C 45.6°F7.6°C 69% 6.0 mph WNW9.7 kmh WNW 13.0 mph20.9 kmh 29.96 in1014.6 mb 0.00 in0.0 mm 0.00 in0.0 mm 0.00 in0.0 mm
05:10 AM 55.7°F13.2°C 45.7°F7.6°C 69% 6.0 mph NW9.7 kmh NW 13.0 mph20.9 kmh 29.96 in1014.6 mb 0.00 in0.0 mm 0.00 in0.0 mm 0.00 in0.0 mm
05:15 AM 55.6°F13.1°C 45.6°F7.6°C 69% 3.0 mph WNW4.8 kmh WNW 13.0 mph20.9 kmh 29.96 in1014.6 mb 0.00 in0.0 mm 0.00 in0.0 mm 0.00 in0.0 mm
05:20 AM 55.6°F13.1°C 45.6°F7.6°C 69% 10.0 mph NW16.1 kmh NW 14.0 mph22.5 kmh 29.96 in1014.6 mb 0.00 in0.0 mm 0.00 in0.0 mm 0.00 in0.0 mm
05:25 AM 55.6°F13.1°C 45.6°F7.6°C 69% 8.0 mph NW12.9 kmh NW 14.0 mph22.5 kmh 29.96 in1014.6 mb 0.00 in0.0 mm 0.00 in0.0 mm 0.00 in0.0 mm
05:30 AM 55.5°F13.1°C 45.5°F7.5°C 69% 6.0 mph W9.7 kmh W 14.0 mph22.5 kmh 29.96 in1014.6 mb 0.00 in0.0 mm 0.00 in0.0 mm 0.00 in0.0 mm
05:35 AM 55.4°F13.0°C 45.4°F7.4°C 69% 3.0 mph WNW4.8 kmh WNW 10.0 mph16.1 kmh 29.97 in1014.9 mb 0.00 in0.0 mm 0.00 in0.0 mm 0.00 in0.0 mm
05:40 AM 55.4°F13.0°C 45.4°F7.4°C 69% 4.0 mph WNW6.4 kmh WNW 13.0 mph20.9 kmh 29.97 in1014.9 mb 0.00 in0.0 mm 0.00 in0.0 mm 0.00 in0.0 mm
05:45 AM 55.2°F12.9°C 45.2°F7.3°C 69% 5.0 mph NW8.0 kmh NW 13.0 mph20.9 kmh 29.97 in1014.9 mb 0.00 in0.0 mm 0.00 in0.0 mm 0.00 in0.0 mm
05:50 AM 55.2°F12.9°C 45.2°F7.3°C 69% 4.0 mph WNW6.4 kmh WNW 13.0 mph20.9 kmh 29.97 in1014.9 mb 0.00 in0.0 mm 0.00 in0.0 mm 0.00 in0.0 mm
05:55 AM 55.1°F12.8°C 45.1°F7.3°C 69% 6.0 mph WNW9.7 kmh WNW 13.0 mph20.9 kmh 29.97 in1014.9 mb 0.00 in0.0 mm 0.00 in0.0 mm 0.00 in0.0 mm
06:00 AM 55.0°F12.8°C 45.0°F7.2°C 69% 6.0 mph WNW9.7 kmh WNW 13.0 mph20.9 kmh 29.97 in1014.9 mb 0.00 in0.0 mm 0.00 in0.0 mm 0.00 in0.0 mm
06:05 AM 55.0°F12.8°C 45.0°F7.2°C 69% 6.0 mph NW9.7 kmh NW 10.0 mph16.1 kmh 29.98 in1015.2 mb 0.00 in0.0 mm 0.00 in0.0 mm 0.00 in0.0 mm
06:10 AM 54.9°F12.7°C 44.9°F7.2°C 69% 5.0 mph W8.0 kmh W 11.0 mph17.7 kmh 29.98 in1015.2 mb 0.00 in0.0 mm 0.00 in0.0 mm 0.00 in0.0 mm
06:15 AM 54.9°F12.7°C 44.9°F7.2°C 69% 4.0 mph NW6.4 kmh NW 11.0 mph17.7 kmh 29.98 in1015.2 mb 0.00 in0.0 mm 0.00 in0.0 mm 0.00 in0.0 mm
06:20 AM 54.8°F12.7°C 44.8°F7.1°C 69% 8.0 mph NW12.9 kmh NW 14.0 mph22.5 kmh 29.98 in1015.2 mb 0.00 in0.0 mm 0.00 in0.0 mm 0.00 in0.0 mm
06:25 AM 54.8°F12.7°C 44.8°F7.1°C 69% 4.0 mph WNW6.4 kmh WNW 14.0 mph22.5 kmh 29.97 in1014.9 mb 0.00 in0.0 mm 0.00 in0.0 mm 0.00 in0.0 mm
06:30 AM 54.8°F12.7°C 44.8°F7.1°C 69% 5.0 mph NW8.0 kmh NW 14.0 mph22.5 kmh 29.98 in1015.2 mb 0.00 in0.0 mm 0.00 in0.0 mm 0.00 in0.0 mm
06:35 AM 54.8°F12.7°C 44.8°F7.1°C 69% 6.0 mph WSW9.7 kmh WSW 9.0 mph14.5 kmh 29.98 in1015.2 mb 0.00 in0.0 mm 0.00 in0.0 mm 0.00 in0.0 mm
06:40 AM 54.9°F12.7°C 44.9°F7.2°C 69% 4.0 mph WNW6.4 kmh WNW 12.0 mph19.3 kmh 29.98 in1015.2 mb 0.00 in0.0 mm 0.00 in0.0 mm 0.00 in0.0 mm
06:45 AM 55.0°F12.8°C 44.7°F7.1°C 68% 8.0 mph WSW12.9 kmh WSW 12.0 mph19.3 kmh 29.98 in1015.2 mb 0.00 in0.0 mm 0.00 in0.0 mm 0.00 in0.0 mm
06:50 AM 55.0°F12.8°C 45.0°F7.2°C 69% 5.0 mph NW8.0 kmh NW 12.0 mph19.3 kmh 29.98 in1015.2 mb 0.00 in0.0 mm 0.00 in0.0 mm 0.00 in0.0 mm
06:55 AM 55.1°F12.8°C 44.7°F7.1°C 68% 7.0 mph NW11.3 kmh NW 12.0 mph19.3 kmh 29.98 in1015.2 mb 0.00 in0.0 mm 0.00 in0.0 mm 0.00 in0.0 mm
07:00 AM 55.2°F12.9°C 44.8°F7.1°C 68% 2.0 mph NW3.2 kmh NW 12.0 mph19.3 kmh 29.98 in1015.2 mb 0.00 in0.0 mm 0.00 in0.0 mm 0.00 in0.0 mm
07:05 AM 55.4°F13.0°C 45.0°F7.2°C 68% 6.0 mph WNW9.7 kmh WNW 10.0 mph16.1 kmh 29.98 in1015.2 mb 0.00 in0.0 mm 0.00 in0.0 mm 0.00 in0.0 mm
07:10 AM 55.5°F13.1°C 44.7°F7.1°C 67% 7.0 mph W11.3 kmh W 10.0 mph16.1 kmh 29.99 in1015.6 mb 0.00 in0.0 mm 0.00 in0.0 mm 0.00 in0.0 mm
07:15 AM 55.5°F13.1°C 45.1°F7.3°C 68% 4.0 mph WNW6.4 kmh WNW 12.0 mph19.3 kmh 29.99 in1015.6 mb 0.00 in0.0 mm 0.00 in0.0 mm 0.00 in0.0 mm
07:20 AM 55.5°F13.1°C 45.1°F7.3°C 68% 5.0 mph NW8.0 kmh NW 12.0 mph19.3 kmh 29.99 in1015.6 mb 0.00 in0.0 mm 0.00 in0.0 mm 0.00 in0.0 mm
07:25 AM 55.6°F13.1°C 44.8°F7.1°C 67% 10.0 mph NW16.1 kmh NW 13.0 mph20.9 kmh 29.99 in1015.6 mb 0.00 in0.0 mm 0.00 in0.0 mm 0.00 in0.0 mm
07:30 AM 56.0°F13.3°C 45.2°F7.3°C 67% 10.0 mph NW16.1 kmh NW 13.0 mph20.9 kmh 29.99 in1015.6 mb 0.00 in0.0 mm 0.00 in0.0 mm 0.00 in0.0 mm
07:35 AM 56.4°F13.6°C 45.2°F7.3°C 66% 13.0 mph WSW20.9 kmh WSW 14.0 mph22.5 kmh 29.99 in1015.6 mb 0.00 in0.0 mm 0.00 in0.0 mm 0.00 in0.0 mm
07:40 AM 56.8°F13.8°C 46.0°F7.8°C 67% 7.0 mph NW11.3 kmh NW 14.0 mph22.5 kmh 30.00 in1015.9 mb 0.00 in0.0 mm 0.00 in0.0 mm 0.00 in0.0 mm
07:45 AM 57.0°F13.9°C 45.8°F7.7°C 66% 12.0 mph WNW19.3 kmh WNW 14.0 mph22.5 kmh 30.00 in1015.9 mb 0.00 in0.0 mm 0.00 in0.0 mm 0.00 in0.0 mm
07:50 AM 57.3°F14.1°C 46.1°F7.8°C 66% 7.0 mph NW11.3 kmh NW 14.0 mph22.5 kmh 30.00 in1015.9 mb 0.00 in0.0 mm 0.00 in0.0 mm 0.00 in0.0 mm
07:55 AM 57.5°F14.2°C 45.8°F7.7°C 65% 6.0 mph NW9.7 kmh NW 14.0 mph22.5 kmh 30.00 in1015.9 mb 0.00 in0.0 mm 0.00 in0.0 mm 0.00 in0.0 mm
08:00 AM 57.6°F14.2°C 45.9°F7.7°C 65% 4.0 mph NW6.4 kmh NW 15.0 mph24.1 kmh 30.00 in1015.9 mb 0.00 in0.0 mm 0.00 in0.0 mm 0.00 in0.0 mm
08:05 AM 57.8°F14.3°C 45.7°F7.6°C 64% 8.0 mph NW12.9 kmh NW 13.0 mph20.9 kmh 30.00 in1015.9 mb 0.00 in0.0 mm 0.00 in0.0 mm 0.00 in0.0 mm
08:10 AM 57.8°F14.3°C 46.1°F7.8°C 65% 5.0 mph NW8.0 kmh NW 13.0 mph20.9 kmh 30.00 in1015.9 mb 0.00 in0.0 mm 0.00 in0.0 mm 0.00 in0.0 mm
08:15 AM 58.1°F14.5°C 46.4°F8.0°C 65% 6.0 mph NW9.7 kmh NW 15.0 mph24.1 kmh 30.01 in1016.3 mb 0.00 in0.0 mm 0.00 in0.0 mm 0.00 in0.0 mm
08:20 AM 58.3°F14.6°C 46.2°F7.9°C 64% 7.0 mph NW11.3 kmh NW 15.0 mph24.1 kmh 30.01 in1016.3 mb 0.00 in0.0 mm 0.00 in0.0 mm 0.00 in0.0 mm
08:25 AM 58.5°F14.7°C 46.4°F8.0°C 64% 6.0 mph W9.7 kmh W 15.0 mph24.1 kmh 30.01 in1016.3 mb 0.00 in0.0 mm 0.00 in0.0 mm 0.00 in0.0 mm
08:30 AM 58.7°F14.8°C 46.2°F7.9°C 63% 3.0 mph NW4.8 kmh NW 15.0 mph24.1 kmh 30.01 in1016.3 mb 0.00 in0.0 mm 0.00 in0.0 mm 0.00 in0.0 mm
08:35 AM 59.0°F15.0°C 46.9°F8.3°C 64% 5.0 mph NW8.0 kmh NW 14.0 mph22.5 kmh 30.01 in1016.3 mb 0.00 in0.0 mm 0.00 in0.0 mm 0.00 in0.0 mm
08:40 AM 59.3°F15.2°C 46.7°F8.2°C 63% 8.0 mph WNW12.9 kmh WNW 14.0 mph22.5 kmh 30.01 in1016.3 mb 0.00 in0.0 mm 0.00 in0.0 mm 0.00 in0.0 mm
08:45 AM 59.8°F15.4°C 47.2°F8.4°C 63% 8.0 mph NW12.9 kmh NW 15.0 mph24.1 kmh 30.01 in1016.3 mb 0.00 in0.0 mm 0.00 in0.0 mm 0.00 in0.0 mm
08:50 AM 60.0°F15.6°C 47.0°F8.3°C 62% 11.0 mph NW17.7 kmh NW 15.0 mph24.1 kmh 30.01 in1016.3 mb 0.00 in0.0 mm 0.00 in0.0 mm 0.00 in0.0 mm
08:55 AM 60.2°F15.7°C 47.2°F8.4°C 62% 5.0 mph WNW8.0 kmh WNW 15.0 mph24.1 kmh 30.02 in1016.6 mb 0.00 in0.0 mm 0.00 in0.0 mm 0.00 in0.0 mm
09:00 AM 60.6°F15.9°C 47.5°F8.6°C 62% 4.0 mph W6.4 kmh W 15.0 mph24.1 kmh 30.02 in1016.6 mb 0.00 in0.0 mm 0.00 in0.0 mm 0.00 in0.0 mm
09:05 AM 61.0°F16.1°C 47.9°F8.8°C 62% 11.0 mph NW17.7 kmh NW 14.0 mph22.5 kmh 30.02 in1016.6 mb 0.00 in0.0 mm 0.00 in0.0 mm 0.00 in0.0 mm
09:10 AM 61.7°F16.5°C 48.6°F9.2°C 62% 5.0 mph W8.0 kmh W 14.0 mph22.5 kmh 30.02 in1016.6 mb 0.00 in0.0 mm 0.00 in0.0 mm 0.00 in0.0 mm
09:15 AM 62.0°F16.7°C 48.4°F9.1°C 61% 5.0 mph WNW8.0 kmh WNW 16.0 mph25.7 kmh 30.02 in1016.6 mb 0.00 in0.0 mm 0.00 in0.0 mm 0.00 in0.0 mm
09:20 AM 62.2°F16.8°C 48.2°F9.0°C 60% 8.0 mph W12.9 kmh W 16.0 mph25.7 kmh 30.02 in1016.6 mb 0.00 in0.0 mm 0.00 in0.0 mm 0.00 in0.0 mm
09:25 AM 62.7°F17.1°C 48.2°F9.0°C 59% 12.0 mph WNW19.3 kmh WNW 16.0 mph25.7 kmh 30.02 in1016.6 mb 0.00 in0.0 mm 0.00 in0.0 mm 0.00 in0.0 mm
09:30 AM 63.0°F17.2°C 48.0°F8.9°C 58% 10.0 mph WNW16.1 kmh WNW 16.0 mph25.7 kmh 30.02 in1016.6 mb 0.00 in0.0 mm 0.00 in0.0 mm 0.00 in0.0 mm
09:35 AM 63.1°F17.3°C 48.1°F8.9°C 58% 7.0 mph W11.3 kmh W 12.0 mph19.3 kmh 30.02 in1016.6 mb 0.00 in0.0 mm 0.00 in0.0 mm 0.00 in0.0 mm
09:40 AM 63.6°F17.6°C 49.0°F9.4°C 59% 6.0 mph WNW9.7 kmh WNW 12.0 mph19.3 kmh 30.02 in1016.6 mb 0.00 in0.0 mm 0.00 in0.0 mm 0.00 in0.0 mm
09:45 AM 64.4°F18.0°C 49.3°F9.6°C 58% 7.0 mph NW11.3 kmh NW 13.0 mph20.9 kmh 30.02 in1016.6 mb 0.00 in0.0 mm 0.00 in0.0 mm 0.00 in0.0 mm
09:50 AM 64.8°F18.2°C 50.2°F10.1°C 59% 4.0 mph W6.4 kmh W 13.0 mph20.9 kmh 30.02 in1016.6 mb 0.00 in0.0 mm 0.00 in0.0 mm 0.00 in0.0 mm
09:55 AM 64.7°F18.2°C 48.7°F9.3°C 56% 6.0 mph WNW9.7 kmh WNW 14.0 mph22.5 kmh 30.01 in1016.3 mb 0.00 in0.0 mm 0.00 in0.0 mm 0.00 in0.0 mm
10:00 AM 65.1°F18.4°C 50.0°F10.0°C 58% 6.0 mph W9.7 kmh W 14.0 mph22.5 kmh 30.01 in1016.3 mb 0.00 in0.0 mm 0.00 in0.0 mm 0.00 in0.0 mm
10:05 AM 65.1°F18.4°C 49.0°F9.4°C 56% 7.0 mph NNW11.3 kmh NNW 12.0 mph19.3 kmh 30.01 in1016.3 mb 0.00 in0.0 mm 0.00 in0.0 mm 0.00 in0.0 mm
10:10 AM 65.7°F18.7°C 49.1°F9.5°C 55% 5.0 mph NW8.0 kmh NW 17.0 mph27.4 kmh 30.01 in1016.3 mb 0.00 in0.0 mm 0.00 in0.0 mm 0.00 in0.0 mm
10:15 AM 66.3°F19.1°C 50.2°F10.1°C 56% 7.0 mph WSW11.3 kmh WSW 17.0 mph27.4 kmh 30.00 in1015.9 mb 0.00 in0.0 mm 0.00 in0.0 mm 0.00 in0.0 mm
10:20 AM 66.3°F19.1°C 49.7°F9.8°C 55% 7.0 mph W11.3 kmh W 17.0 mph27.4 kmh 30.00 in1015.9 mb 0.00 in0.0 mm 0.00 in0.0 mm 0.00 in0.0 mm
10:25 AM 66.8°F19.3°C 49.6°F9.8°C 54% 6.0 mph WNW9.7 kmh WNW 17.0 mph27.4 kmh 30.00 in1015.9 mb 0.00 in0.0 mm 0.00 in0.0 mm 0.00 in0.0 mm
10:30 AM 67.1°F19.5°C 49.9°F9.9°C 54% 4.0 mph NW6.4 kmh NW 17.0 mph27.4 kmh 30.00 in1015.9 mb 0.00 in0.0 mm 0.00 in0.0 mm 0.00 in0.0 mm
10:35 AM 67.8°F19.9°C 50.6°F10.3°C 54% 8.0 mph NW12.9 kmh NW 13.0 mph20.9 kmh 30.00 in1015.9 mb 0.00 in0.0 mm 0.00 in0.0 mm 0.00 in0.0 mm
10:40 AM 68.1°F20.1°C 50.3°F10.2°C 53% 8.0 mph WSW12.9 kmh WSW 16.0 mph25.7 kmh 29.99 in1015.6 mb 0.00 in0.0 mm 0.00 in0.0 mm 0.00 in0.0 mm
10:45 AM 68.5°F20.3°C 50.7°F10.4°C 53% 4.0 mph WNW6.4 kmh WNW 16.0 mph25.7 kmh 30.00 in1015.9 mb 0.00 in0.0 mm 0.00 in0.0 mm 0.00 in0.0 mm
10:50 AM 69.0°F20.6°C 51.2°F10.7°C 53% 4.0 mph NW6.4 kmh NW 16.0 mph25.7 kmh 30.00 in1015.9 mb 0.00 in0.0 mm 0.00 in0.0 mm 0.00 in0.0 mm
10:55 AM 69.7°F20.9°C 51.3°F10.7°C 52% 9.0 mph NW14.5 kmh NW 16.0 mph25.7 kmh 30.00 in1015.9 mb 0.00 in0.0 mm 0.00 in0.0 mm 0.00 in0.0 mm
11:00 AM 70.0°F21.1°C 51.1°F10.6°C 51% 9.0 mph NW14.5 kmh NW 16.0 mph25.7 kmh 30.00 in1015.9 mb 0.00 in0.0 mm 0.00 in0.0 mm 0.00 in0.0 mm
11:05 AM 70.0°F21.1°C 50.5°F10.3°C 50% 11.0 mph NW17.7 kmh NW 16.0 mph25.7 kmh 30.00 in1015.9 mb 0.00 in0.0 mm 0.00 in0.0 mm 0.00 in0.0 mm
11:10 AM 70.3°F21.3°C 50.8°F10.4°C 50% 17.0 mph WNW27.4 kmh WNW 17.0 mph27.4 kmh 29.99 in1015.6 mb 0.00 in0.0 mm 0.00 in0.0 mm 0.00 in0.0 mm
11:15 AM 70.9°F21.6°C 51.4°F10.8°C 50% 11.0 mph NW17.7 kmh NW 17.0 mph27.4 kmh 29.99 in1015.6 mb 0.00 in0.0 mm 0.00 in0.0 mm 0.00 in0.0 mm
11:20 AM 71.2°F21.8°C 51.6°F10.9°C 50% 9.0 mph NW14.5 kmh NW 17.0 mph27.4 kmh 29.99 in1015.6 mb 0.00 in0.0 mm 0.00 in0.0 mm 0.00 in0.0 mm
11:25 AM 71.7°F22.1°C 51.5°F10.8°C 49% 6.0 mph NW9.7 kmh NW 17.0 mph27.4 kmh 29.99 in1015.6 mb 0.00 in0.0 mm 0.00 in0.0 mm 0.00 in0.0 mm
11:30 AM 71.7°F22.1°C 51.5°F10.8°C 49% 10.0 mph WNW16.1 kmh WNW 17.0 mph27.4 kmh 29.98 in1015.2 mb 0.00 in0.0 mm 0.00 in0.0 mm 0.00 in0.0 mm
11:35 AM 71.8°F22.1°C 51.6°F10.9°C 49% 9.0 mph WNW14.5 kmh WNW 15.0 mph24.1 kmh 29.98 in1015.2 mb 0.00 in0.0 mm 0.00 in0.0 mm 0.00 in0.0 mm
11:40 AM 72.3°F22.4°C 51.5°F10.8°C 48% 7.0 mph WNW11.3 kmh WNW 17.0 mph27.4 kmh 29.98 in1015.2 mb 0.00 in0.0 mm 0.00 in0.0 mm 0.00 in0.0 mm
11:45 AM 72.4°F22.4°C 51.6°F10.9°C 48% 7.0 mph NW11.3 kmh NW 17.0 mph27.4 kmh 29.98 in1015.2 mb 0.00 in0.0 mm 0.00 in0.0 mm 0.00 in0.0 mm
11:50 AM 72.6°F22.6°C 51.2°F10.7°C 47% 7.0 mph WNW11.3 kmh WNW 17.0 mph27.4 kmh 29.98 in1015.2 mb 0.00 in0.0 mm 0.00 in0.0 mm 0.00 in0.0 mm
11:55 AM 73.1°F22.8°C 52.3°F11.3°C 48% 7.0 mph WNW11.3 kmh WNW 17.0 mph27.4 kmh 29.98 in1015.2 mb 0.00 in0.0 mm 0.00 in0.0 mm 0.00 in0.0 mm
12:00 PM 73.4°F23.0°C 52.0°F11.1°C 47% 4.0 mph NW6.4 kmh NW 17.0 mph27.4 kmh 29.98 in1015.2 mb 0.00 in0.0 mm 0.00 in0.0 mm 0.00 in0.0 mm
12:05 PM 73.9°F23.3°C 52.4°F11.3°C 47% 16.0 mph NW25.7 kmh NW 17.0 mph27.4 kmh 29.98 in1015.2 mb 0.00 in0.0 mm 0.00 in0.0 mm 0.00 in0.0 mm
12:10 PM 74.5°F23.6°C 52.4°F11.3°C 46% 6.0 mph NW9.7 kmh NW 17.0 mph27.4 kmh 29.98 in1015.2 mb 0.00 in0.0 mm 0.00 in0.0 mm 0.00 in0.0 mm
12:15 PM 74.5°F23.6°C 53.0°F11.7°C 47% 10.0 mph NW16.1 kmh NW 17.0 mph27.4 kmh 29.97 in1014.9 mb 0.00 in0.0 mm 0.00 in0.0 mm 0.00 in0.0 mm
12:20 PM 75.0°F23.9°C 52.2°F11.2°C 45% 8.0 mph WNW12.9 kmh WNW 17.0 mph27.4 kmh 29.97 in1014.9 mb 0.00 in0.0 mm 0.00 in0.0 mm 0.00 in0.0 mm
12:25 PM 74.9°F23.8°C 51.5°F10.8°C 44% 2.0 mph WNW3.2 kmh WNW 17.0 mph27.4 kmh 29.97 in1014.9 mb 0.00 in0.0 mm 0.00 in0.0 mm 0.00 in0.0 mm
12:30 PM 75.2°F24.0°C 52.4°F11.3°C 45% 8.0 mph W12.9 kmh W 17.0 mph27.4 kmh 29.96 in1014.6 mb 0.00 in0.0 mm 0.00 in0.0 mm 0.00 in0.0 mm
12:35 PM 75.4°F24.1°C 52.0°F11.1°C 44% 5.0 mph WNW8.0 kmh WNW 18.0 mph29.0 kmh 29.96 in1014.6 mb 0.00 in0.0 mm 0.00 in0.0 mm 0.00 in0.0 mm
12:40 PM 75.3°F24.1°C 52.5°F11.4°C 45% 7.0 mph WSW11.3 kmh WSW 18.0 mph29.0 kmh 29.96 in1014.6 mb 0.00 in0.0 mm 0.00 in0.0 mm 0.00 in0.0 mm
12:45 PM 75.4°F24.1°C 52.0°F11.1°C 44% 10.0 mph WNW16.1 kmh WNW 18.0 mph29.0 kmh 29.95 in1014.2 mb 0.00 in0.0 mm 0.00 in0.0 mm 0.00 in0.0 mm
12:50 PM 76.2°F24.6°C 52.7°F11.5°C 44% 3.0 mph NW4.8 kmh NW 19.0 mph30.6 kmh 29.95 in1014.2 mb 0.00 in0.0 mm 0.00 in0.0 mm 0.00 in0.0 mm
12:55 PM 76.6°F24.8°C 53.1°F11.7°C 44% 5.0 mph WSW8.0 kmh WSW 19.0 mph30.6 kmh 29.95 in1014.2 mb 0.00 in0.0 mm 0.00 in0.0 mm 0.00 in0.0 mm
01:00 PM 77.0°F25.0°C 52.2°F11.2°C 42% 7.0 mph NW11.3 kmh NW 19.0 mph30.6 kmh 29.95 in1014.2 mb 0.00 in0.0 mm 0.00 in0.0 mm 0.00 in0.0 mm
01:05 PM 77.3°F25.2°C 52.5°F11.4°C 42% 8.0 mph NW12.9 kmh NW 17.0 mph27.4 kmh 29.95 in1014.2 mb 0.00 in0.0 mm 0.00 in0.0 mm 0.00 in0.0 mm
01:10 PM 77.1°F25.1°C 51.6°F10.9°C 41% 6.0 mph WNW9.7 kmh WNW 18.0 mph29.0 kmh 29.95 in1014.2 mb 0.00 in0.0 mm 0.00 in0.0 mm 0.00 in0.0 mm
01:15 PM 77.5°F25.3°C 52.6°F11.4°C 42% 14.0 mph WNW22.5 kmh WNW 18.0 mph29.0 kmh 29.95 in1014.2 mb 0.00 in0.0 mm 0.00 in0.0 mm 0.00 in0.0 mm
01:20 PM 77.3°F25.2°C 51.8°F11.0°C 41% 5.0 mph WNW8.0 kmh WNW 18.0 mph29.0 kmh 29.95 in1014.2 mb 0.00 in0.0 mm 0.00 in0.0 mm 0.00 in0.0 mm
01:25 PM 77.0°F25.0°C 52.2°F11.2°C 42% 5.0 mph W8.0 kmh W 18.0 mph29.0 kmh 29.95 in1014.2 mb 0.00 in0.0 mm 0.00 in0.0 mm 0.00 in0.0 mm
01:30 PM 77.8°F25.4°C 51.6°F10.9°C 40% 4.0 mph NW6.4 kmh NW 18.0 mph29.0 kmh 29.95 in1014.2 mb 0.00 in0.0 mm 0.00 in0.0 mm 0.00 in0.0 mm
01:35 PM 78.0°F25.6°C 51.8°F11.0°C 40% 9.0 mph NNW14.5 kmh NNW 14.0 mph22.5 kmh 29.95 in1014.2 mb 0.00 in0.0 mm 0.00 in0.0 mm 0.00 in0.0 mm
01:40 PM 78.0°F25.6°C 52.4°F11.3°C 41% 2.0 mph W3.2 kmh W 14.0 mph22.5 kmh 29.95 in1014.2 mb 0.00 in0.0 mm 0.00 in0.0 mm 0.00 in0.0 mm
01:45 PM 78.3°F25.7°C 52.7°F11.5°C 41% 6.0 mph WSW9.7 kmh WSW 15.0 mph24.1 kmh 29.95 in1014.2 mb 0.00 in0.0 mm 0.00 in0.0 mm 0.00 in0.0 mm
01:50 PM 78.1°F25.6°C 51.8°F11.0°C 40% 7.0 mph W11.3 kmh W 15.0 mph24.1 kmh 29.95 in1014.2 mb 0.00 in0.0 mm 0.00 in0.0 mm 0.00 in0.0 mm
01:55 PM 77.7°F25.4°C 51.5°F10.8°C 40% 14.0 mph NNW22.5 kmh NNW 15.0 mph24.1 kmh 29.95 in1014.2 mb 0.00 in0.0 mm 0.00 in0.0 mm 0.00 in0.0 mm
02:00 PM 78.6°F25.9°C 53.0°F11.7°C 41% 7.0 mph NW11.3 kmh NW 15.0 mph24.1 kmh 29.94 in1013.9 mb 0.00 in0.0 mm 0.00 in0.0 mm 0.00 in0.0 mm
02:05 PM 78.2°F25.7°C 51.2°F10.7°C 39% 7.0 mph WSW11.3 kmh WSW 18.0 mph29.0 kmh 29.94 in1013.9 mb 0.00 in0.0 mm 0.00 in0.0 mm 0.00 in0.0 mm
02:10 PM 78.9°F26.1°C 51.9°F11.1°C 39% 9.0 mph NW14.5 kmh NW 18.0 mph29.0 kmh 29.94 in1013.9 mb 0.00 in0.0 mm 0.00 in0.0 mm 0.00 in0.0 mm
02:15 PM 79.8°F26.6°C 52.0°F11.1°C 38% 12.0 mph WNW19.3 kmh WNW 18.0 mph29.0 kmh 29.94 in1013.9 mb 0.00 in0.0 mm 0.00 in0.0 mm 0.00 in0.0 mm
02:20 PM 79.4°F26.3°C 50.9°F10.5°C 37% 8.0 mph WNW12.9 kmh WNW 18.0 mph29.0 kmh 29.94 in1013.9 mb 0.00 in0.0 mm 0.00 in0.0 mm 0.00 in0.0 mm
02:25 PM 79.4°F26.3°C 53.7°F12.1°C 41% 10.0 mph NW16.1 kmh NW 18.0 mph29.0 kmh 29.94 in1013.9 mb 0.00 in0.0 mm 0.00 in0.0 mm 0.00 in0.0 mm
02:30 PM 79.8°F26.6°C 52.7°F11.5°C 39% 6.0 mph WNW9.7 kmh WNW 20.0 mph32.2 kmh 29.93 in1013.5 mb 0.00 in0.0 mm 0.00 in0.0 mm 0.00 in0.0 mm
02:35 PM 79.7°F26.5°C 51.9°F11.1°C 38% 11.0 mph NW17.7 kmh NW 19.0 mph30.6 kmh 29.93 in1013.5 mb 0.00 in0.0 mm 0.00 in0.0 mm 0.00 in0.0 mm
02:40 PM 80.1°F26.7°C 52.9°F11.6°C 39% 9.0 mph WNW14.5 kmh WNW 19.0 mph30.6 kmh 29.92 in1013.2 mb 0.00 in0.0 mm 0.00 in0.0 mm 0.00 in0.0 mm
02:45 PM 80.5°F26.9°C 51.9°F11.1°C 37% 5.0 mph W8.0 kmh W 19.0 mph30.6 kmh 29.92 in1013.2 mb 0.00 in0.0 mm 0.00 in0.0 mm 0.00 in0.0 mm
02:50 PM 80.0°F26.7°C 51.4°F10.8°C 37% 8.0 mph W12.9 kmh W 19.0 mph30.6 kmh 29.93 in1013.5 mb 0.00 in0.0 mm 0.00 in0.0 mm 0.00 in0.0 mm
02:55 PM 79.8°F26.6°C 52.0°F11.1°C 38% 7.0 mph WNW11.3 kmh WNW 19.0 mph30.6 kmh 29.93 in1013.5 mb 0.00 in0.0 mm 0.00 in0.0 mm 0.00 in0.0 mm
03:00 PM 79.9°F26.6°C 51.3°F10.7°C 37% 8.0 mph NW12.9 kmh NW 19.0 mph30.6 kmh 29.93 in1013.5 mb 0.00 in0.0 mm 0.00 in0.0 mm 0.00 in0.0 mm
03:05 PM 80.2°F26.8°C 52.3°F11.3°C 38% 14.0 mph NW22.5 kmh NW 16.0 mph25.7 kmh 29.92 in1013.2 mb 0.00 in0.0 mm 0.00 in0.0 mm 0.00 in0.0 mm
03:10 PM 80.2°F26.8°C 52.3°F11.3°C 38% 8.0 mph W12.9 kmh W 19.0 mph30.6 kmh 29.92 in1013.2 mb 0.00 in0.0 mm 0.00 in0.0 mm 0.00 in0.0 mm
03:15 PM 80.2°F26.8°C 51.6°F10.9°C 37% 8.0 mph W12.9 kmh W 19.0 mph30.6 kmh 29.92 in1013.2 mb 0.00 in0.0 mm 0.00 in0.0 mm 0.00 in0.0 mm
03:20 PM 80.2°F26.8°C 52.3°F11.3°C 38% 6.0 mph WNW9.7 kmh WNW 21.0 mph33.8 kmh 29.92 in1013.2 mb 0.00 in0.0 mm 0.00 in0.0 mm 0.00 in0.0 mm
03:25 PM 81.1°F27.3°C 52.4°F11.3°C 37% 8.0 mph NW12.9 kmh NW 21.0 mph33.8 kmh 29.92 in1013.2 mb 0.00 in0.0 mm 0.00 in0.0 mm 0.00 in0.0 mm
03:30 PM 80.3°F26.8°C 52.4°F11.3°C 38% 10.0 mph NW16.1 kmh NW 21.0 mph33.8 kmh 29.92 in1013.2 mb 0.00 in0.0 mm 0.00 in0.0 mm 0.00 in0.0 mm
03:35 PM 80.9°F27.2°C 52.2°F11.2°C 37% 7.0 mph NW11.3 kmh NW 13.0 mph20.9 kmh 29.92 in1013.2 mb 0.00 in0.0 mm 0.00 in0.0 mm 0.00 in0.0 mm
03:40 PM 80.9°F27.2°C 52.2°F11.2°C 37% 7.0 mph W11.3 kmh W 13.0 mph20.9 kmh 29.92 in1013.2 mb 0.00 in0.0 mm 0.00 in0.0 mm 0.00 in0.0 mm
03:45 PM 81.3°F27.4°C 53.3°F11.8°C 38% 4.0 mph NW6.4 kmh NW 15.0 mph24.1 kmh 29.92 in1013.2 mb 0.00 in0.0 mm 0.00 in0.0 mm 0.00 in0.0 mm
03:50 PM 81.3°F27.4°C 51.8°F11.0°C 36% 6.0 mph WSW9.7 kmh WSW 17.0 mph27.4 kmh 29.92 in1013.2 mb 0.00 in0.0 mm 0.00 in0.0 mm 0.00 in0.0 mm
03:55 PM 81.4°F27.4°C 52.7°F11.5°C 37% 10.0 mph NW16.1 kmh NW 17.0 mph27.4 kmh 29.92 in1013.2 mb 0.00 in0.0 mm 0.00 in0.0 mm 0.00 in0.0 mm
04:00 PM 82.1°F27.8°C 51.8°F11.0°C 35% 11.0 mph NW17.7 kmh NW 18.0 mph29.0 kmh 29.92 in1013.2 mb 0.00 in0.0 mm 0.00 in0.0 mm 0.00 in0.0 mm
04:05 PM 81.6°F27.6°C 52.8°F11.6°C 37% 4.0 mph W6.4 kmh W 14.0 mph22.5 kmh 29.92 in1013.2 mb 0.00 in0.0 mm 0.00 in0.0 mm 0.00 in0.0 mm
04:10 PM 81.3°F27.4°C 51.8°F11.0°C 36% 4.0 mph NW6.4 kmh NW 14.0 mph22.5 kmh 29.92 in1013.2 mb 0.00 in0.0 mm 0.00 in0.0 mm 0.00 in0.0 mm
04:15 PM 81.4°F27.4°C 51.9°F11.1°C 36% 8.0 mph W12.9 kmh W 14.0 mph22.5 kmh 29.92 in1013.2 mb 0.00 in0.0 mm 0.00 in0.0 mm 0.00 in0.0 mm
04:20 PM 81.3°F27.4°C 51.8°F11.0°C 36% 6.0 mph NW9.7 kmh NW 14.0 mph22.5 kmh 29.92 in1013.2 mb 0.00 in0.0 mm 0.00 in0.0 mm 0.00 in0.0 mm
04:25 PM 81.1°F27.3°C 52.4°F11.3°C 37% 4.0 mph NW6.4 kmh NW 14.0 mph22.5 kmh 29.91 in1012.9 mb 0.00 in0.0 mm 0.00 in0.0 mm 0.00 in0.0 mm
04:30 PM 81.8°F27.7°C 52.3°F11.3°C 36% 2.0 mph WNW3.2 kmh WNW 14.0 mph22.5 kmh 29.91 in1012.9 mb 0.00 in0.0 mm 0.00 in0.0 mm 0.00 in0.0 mm
04:35 PM 81.8°F27.7°C 52.3°F11.3°C 36% 10.0 mph NW16.1 kmh NW 14.0 mph22.5 kmh 29.91 in1012.9 mb 0.00 in0.0 mm 0.00 in0.0 mm 0.00 in0.0 mm
04:40 PM 82.0°F27.8°C 50.9°F10.5°C 34% 6.0 mph NW9.7 kmh NW 17.0 mph27.4 kmh 29.91 in1012.9 mb 0.00 in0.0 mm 0.00 in0.0 mm 0.00 in0.0 mm
04:45 PM 81.7°F27.6°C 52.2°F11.2°C 36% 9.0 mph NW14.5 kmh NW 17.0 mph27.4 kmh 29.91 in1012.9 mb 0.00 in0.0 mm 0.00 in0.0 mm 0.00 in0.0 mm
04:50 PM 82.3°F27.9°C 51.9°F11.1°C 35% 11.0 mph NNW17.7 kmh NNW 17.0 mph27.4 kmh 29.91 in1012.9 mb 0.00 in0.0 mm 0.00 in0.0 mm 0.00 in0.0 mm
04:55 PM 82.0°F27.8°C 52.4°F11.3°C 36% 7.0 mph NNW11.3 kmh NNW 17.0 mph27.4 kmh 29.90 in1012.5 mb 0.00 in0.0 mm 0.00 in0.0 mm 0.00 in0.0 mm
05:00 PM 82.2°F27.9°C 51.9°F11.1°C 35% 10.0 mph WNW16.1 kmh WNW 18.0 mph29.0 kmh 29.90 in1012.5 mb 0.00 in0.0 mm 0.00 in0.0 mm 0.00 in0.0 mm
05:05 PM 82.3°F27.9°C 51.9°F11.1°C 35% 8.0 mph NW12.9 kmh NW 13.0 mph20.9 kmh 29.90 in1012.5 mb 0.00 in0.0 mm 0.00 in0.0 mm 0.00 in0.0 mm
05:10 PM 82.8°F28.2°C 51.6°F10.9°C 34% 6.0 mph NW9.7 kmh NW 13.0 mph20.9 kmh 29.90 in1012.5 mb 0.00 in0.0 mm 0.00 in0.0 mm 0.00 in0.0 mm
05:15 PM 82.4°F28.0°C 52.0°F11.1°C 35% 11.0 mph NW17.7 kmh NW 16.0 mph25.7 kmh 29.90 in1012.5 mb 0.00 in0.0 mm 0.00 in0.0 mm 0.00 in0.0 mm
05:20 PM 82.2°F27.9°C 51.9°F11.1°C 35% 2.0 mph WNW3.2 kmh WNW 17.0 mph27.4 kmh 29.90 in1012.5 mb 0.00 in0.0 mm 0.00 in0.0 mm 0.00 in0.0 mm
05:25 PM 82.9°F28.3°C 53.2°F11.8°C 36% 4.0 mph NW6.4 kmh NW 17.0 mph27.4 kmh 29.90 in1012.5 mb 0.00 in0.0 mm 0.00 in0.0 mm 0.00 in0.0 mm
05:30 PM 82.2°F27.9°C 51.9°F11.1°C 35% 7.0 mph WNW11.3 kmh WNW 17.0 mph27.4 kmh 29.89 in1012.2 mb 0.00 in0.0 mm 0.00 in0.0 mm 0.00 in0.0 mm
05:35 PM 82.7°F28.2°C 52.3°F11.3°C 35% 10.0 mph NW16.1 kmh NW 15.0 mph24.1 kmh 29.89 in1012.2 mb 0.00 in0.0 mm 0.00 in0.0 mm 0.00 in0.0 mm
05:40 PM 82.8°F28.2°C 52.4°F11.3°C 35% 13.0 mph NW20.9 kmh NW 15.0 mph24.1 kmh 29.89 in1012.2 mb 0.00 in0.0 mm 0.00 in0.0 mm 0.00 in0.0 mm
05:45 PM 82.7°F28.2°C 52.3°F11.3°C 35% 6.0 mph NW9.7 kmh NW 16.0 mph25.7 kmh 29.89 in1012.2 mb 0.00 in0.0 mm 0.00 in0.0 mm 0.00 in0.0 mm
05:50 PM 82.6°F28.1°C 52.2°F11.2°C 35% 13.0 mph NW20.9 kmh NW 16.0 mph25.7 kmh 29.89 in1012.2 mb 0.00 in0.0 mm 0.00 in0.0 mm 0.00 in0.0 mm
05:55 PM 82.8°F28.2°C 51.6°F10.9°C 34% 10.0 mph NW16.1 kmh NW 21.0 mph33.8 kmh 29.88 in1011.9 mb 0.00 in0.0 mm 0.00 in0.0 mm 0.00 in0.0 mm
06:05 PM 81.7°F27.6°C 52.2°F11.2°C 36% 6.0 mph NW9.7 kmh NW 12.0 mph19.3 kmh 29.88 in1011.9 mb 0.00 in0.0 mm 0.00 in0.0 mm 0.00 in0.0 mm
06:10 PM 81.6°F27.6°C 50.5°F10.3°C 34% 6.0 mph W9.7 kmh W 15.0 mph24.1 kmh 29.88 in1011.9 mb 0.00 in0.0 mm 0.00 in0.0 mm 0.00 in0.0 mm
06:15 PM 80.9°F27.2°C 51.5°F10.8°C 36% 9.0 mph NW14.5 kmh NW 15.0 mph24.1 kmh 29.88 in1011.9 mb 0.00 in0.0 mm 0.00 in0.0 mm 0.00 in0.0 mm
06:20 PM 80.2°F26.8°C 50.9°F10.5°C 36% 7.0 mph NW11.3 kmh NW 15.0 mph24.1 kmh 29.88 in1011.9 mb 0.00 in0.0 mm 0.00 in0.0 mm 0.00 in0.0 mm
06:25 PM 80.2°F26.8°C 51.6°F10.9°C 37% 6.0 mph NW9.7 kmh NW 15.0 mph24.1 kmh 29.88 in1011.9 mb 0.00 in0.0 mm 0.00 in0.0 mm 0.00 in0.0 mm
06:30 PM 80.9°F27.2°C 50.7°F10.4°C 35% 11.0 mph NW17.7 kmh NW 18.0 mph29.0 kmh 29.88 in1011.9 mb 0.00 in0.0 mm 0.00 in0.0 mm 0.00 in0.0 mm
06:35 PM 81.5°F27.5°C 52.0°F11.1°C 36% 7.0 mph NW11.3 kmh NW 14.0 mph22.5 kmh 29.89 in1012.2 mb 0.00 in0.0 mm 0.00 in0.0 mm 0.00 in0.0 mm
06:40 PM 82.1°F27.8°C 52.5°F11.4°C 36% 13.0 mph NW20.9 kmh NW 15.0 mph24.1 kmh 29.88 in1011.9 mb 0.00 in0.0 mm 0.00 in0.0 mm 0.00 in0.0 mm
06:45 PM 82.5°F28.1°C 51.3°F10.7°C 34% 8.0 mph NW12.9 kmh NW 15.0 mph24.1 kmh 29.88 in1011.9 mb 0.00 in0.0 mm 0.00 in0.0 mm 0.00 in0.0 mm
06:50 PM 82.5°F28.1°C 51.3°F10.7°C 34% 9.0 mph NW14.5 kmh NW 16.0 mph25.7 kmh 29.88 in1011.9 mb 0.00 in0.0 mm 0.00 in0.0 mm 0.00 in0.0 mm
06:55 PM 82.4°F28.0°C 51.2°F10.7°C 34% 13.0 mph NW20.9 kmh NW 16.0 mph25.7 kmh 29.88 in1011.9 mb 0.00 in0.0 mm 0.00 in0.0 mm 0.00 in0.0 mm
07:00 PM 82.3°F27.9°C 51.2°F10.7°C 34% 8.0 mph N12.9 kmh N 16.0 mph25.7 kmh 29.88 in1011.9 mb 0.00 in0.0 mm 0.00 in0.0 mm 0.00 in0.0 mm
07:05 PM 82.3°F27.9°C 51.2°F10.7°C 34% 15.0 mph NW24.1 kmh NW 17.0 mph27.4 kmh 29.88 in1011.9 mb 0.00 in0.0 mm 0.00 in0.0 mm 0.00 in0.0 mm
07:10 PM 81.6°F27.6°C 50.5°F10.3°C 34% 4.0 mph NW6.4 kmh NW 18.0 mph29.0 kmh 29.88 in1011.9 mb 0.00 in0.0 mm 0.00 in0.0 mm 0.00 in0.0 mm
07:15 PM 81.2°F27.3°C 51.0°F10.6°C 35% 9.0 mph W14.5 kmh W 18.0 mph29.0 kmh 29.87 in1011.5 mb 0.00 in0.0 mm 0.00 in0.0 mm 0.00 in0.0 mm
07:20 PM 81.0°F27.2°C 50.8°F10.4°C 35% 9.0 mph NW14.5 kmh NW 18.0 mph29.0 kmh 29.87 in1011.5 mb 0.00 in0.0 mm 0.00 in0.0 mm 0.00 in0.0 mm
07:25 PM 81.3°F27.4°C 51.1°F10.6°C 35% 7.0 mph NW11.3 kmh NW 18.0 mph29.0 kmh 29.87 in1011.5 mb 0.00 in0.0 mm 0.00 in0.0 mm 0.00 in0.0 mm
07:30 PM 81.4°F27.4°C 51.2°F10.7°C 35% 8.0 mph NW12.9 kmh NW 18.0 mph29.0 kmh 29.87 in1011.5 mb 0.00 in0.0 mm 0.00 in0.0 mm 0.00 in0.0 mm
07:35 PM 80.9°F27.2°C 51.5°F10.8°C 36% 7.0 mph NW11.3 kmh NW 14.0 mph22.5 kmh 29.88 in1011.9 mb 0.00 in0.0 mm 0.00 in0.0 mm 0.00 in0.0 mm
07:40 PM 80.7°F27.1°C 50.5°F10.3°C 35% 7.0 mph NW11.3 kmh NW 18.0 mph29.0 kmh 29.88 in1011.9 mb 0.00 in0.0 mm 0.00 in0.0 mm 0.00 in0.0 mm
07:45 PM 80.5°F26.9°C 51.1°F10.6°C 36% 17.0 mph NW27.4 kmh NW 18.0 mph29.0 kmh 29.87 in1011.5 mb 0.00 in0.0 mm 0.00 in0.0 mm 0.00 in0.0 mm
07:50 PM 80.4°F26.9°C 51.0°F10.6°C 36% 4.0 mph WNW6.4 kmh WNW 18.0 mph29.0 kmh 29.88 in1011.9 mb 0.00 in0.0 mm 0.00 in0.0 mm 0.00 in0.0 mm
07:55 PM 80.3°F26.8°C 50.2°F10.1°C 35% 8.0 mph NW12.9 kmh NW 18.0 mph29.0 kmh 29.89 in1012.2 mb 0.00 in0.0 mm 0.00 in0.0 mm 0.00 in0.0 mm
08:00 PM 80.3°F26.8°C 50.9°F10.5°C 36% 14.0 mph NW22.5 kmh NW 18.0 mph29.0 kmh 29.89 in1012.2 mb 0.00 in0.0 mm 0.00 in0.0 mm 0.00 in0.0 mm
08:05 PM 80.1°F26.7°C 50.8°F10.4°C 36% 16.0 mph WNW25.7 kmh WNW 17.0 mph27.4 kmh 29.89 in1012.2 mb 0.00 in0.0 mm 0.00 in0.0 mm 0.00 in0.0 mm
08:10 PM 79.9°F26.6°C 50.6°F10.3°C 36% 13.0 mph NW20.9 kmh NW 17.0 mph27.4 kmh 29.89 in1012.2 mb 0.00 in0.0 mm 0.00 in0.0 mm 0.00 in0.0 mm
08:15 PM 79.6°F26.4°C 50.3°F10.2°C 36% 6.0 mph NW9.7 kmh NW 17.0 mph27.4 kmh 29.89 in1012.2 mb 0.00 in0.0 mm 0.00 in0.0 mm 0.00 in0.0 mm
08:20 PM 79.2°F26.2°C 50.7°F10.4°C 37% 6.0 mph NW9.7 kmh NW 17.0 mph27.4 kmh 29.89 in1012.2 mb 0.00 in0.0 mm 0.00 in0.0 mm 0.00 in0.0 mm
08:25 PM 79.3°F26.3°C 50.8°F10.4°C 37% 5.0 mph NW8.0 kmh NW 17.0 mph27.4 kmh 29.89 in1012.2 mb 0.00 in0.0 mm 0.00 in0.0 mm 0.00 in0.0 mm
08:30 PM 79.2°F26.2°C 50.7°F10.4°C 37% 8.0 mph NW12.9 kmh NW 17.0 mph27.4 kmh 29.89 in1012.2 mb 0.00 in0.0 mm 0.00 in0.0 mm 0.00 in0.0 mm
08:35 PM 79.1°F26.2°C 50.6°F10.3°C 37% 6.0 mph N9.7 kmh N 12.0 mph19.3 kmh 29.90 in1012.5 mb 0.00 in0.0 mm 0.00 in0.0 mm 0.00 in0.0 mm
08:40 PM 78.8°F26.0°C 51.1°F10.6°C 38% 7.0 mph NW11.3 kmh NW 12.0 mph19.3 kmh 29.90 in1012.5 mb 0.00 in0.0 mm 0.00 in0.0 mm 0.00 in0.0 mm
08:45 PM 78.6°F25.9°C 50.2°F10.1°C 37% 10.0 mph NW16.1 kmh NW 14.0 mph22.5 kmh 29.90 in1012.5 mb 0.00 in0.0 mm 0.00 in0.0 mm 0.00 in0.0 mm
08:50 PM 78.5°F25.8°C 50.1°F10.1°C 37% 9.0 mph NW14.5 kmh NW 14.0 mph22.5 kmh 29.91 in1012.9 mb 0.00 in0.0 mm 0.00 in0.0 mm 0.00 in0.0 mm
08:55 PM 78.2°F25.7°C 50.5°F10.3°C 38% 9.0 mph NNW14.5 kmh NNW 14.0 mph22.5 kmh 29.91 in1012.9 mb 0.00 in0.0 mm 0.00 in0.0 mm 0.00 in0.0 mm
09:00 PM 78.0°F25.6°C 51.1°F10.6°C 39% 4.0 mph NW6.4 kmh NW 14.0 mph22.5 kmh 29.91 in1012.9 mb 0.00 in0.0 mm 0.00 in0.0 mm 0.00 in0.0 mm
09:05 PM 77.7°F25.4°C 50.8°F10.4°C 39% 2.0 mph NW3.2 kmh NW 13.0 mph20.9 kmh 29.91 in1012.9 mb 0.00 in0.0 mm 0.00 in0.0 mm 0.00 in0.0 mm
09:10 PM 77.6°F25.3°C 50.7°F10.4°C 39% 4.0 mph NW6.4 kmh NW 13.0 mph20.9 kmh 29.92 in1013.2 mb 0.00 in0.0 mm 0.00 in0.0 mm 0.00 in0.0 mm
09:15 PM 77.5°F25.3°C 50.6°F10.3°C 39% 3.0 mph NW4.8 kmh NW 13.0 mph20.9 kmh 29.92 in1013.2 mb 0.00 in0.0 mm 0.00 in0.0 mm 0.00 in0.0 mm
09:20 PM 77.5°F25.3°C 50.6°F10.3°C 39% Calm Calm 13.0 mph20.9 kmh 29.92 in1013.2 mb 0.00 in0.0 mm 0.00 in0.0 mm 0.00 in0.0 mm
09:25 PM 77.3°F25.2°C 50.4°F10.2°C 39% Calm Calm 13.0 mph20.9 kmh 29.93 in1013.5 mb 0.00 in0.0 mm 0.00 in0.0 mm 0.00 in0.0 mm
09:30 PM 76.2°F24.6°C 51.5°F10.8°C 42% 14.0 mph SSE22.5 kmh SSE 15.0 mph24.1 kmh 29.94 in1013.9 mb 0.00 in0.0 mm 0.00 in0.0 mm 0.00 in0.0 mm
09:35 PM 72.1°F22.3°C 53.5°F11.9°C 52% 3.0 mph ESE4.8 kmh ESE 15.0 mph24.1 kmh 29.94 in1013.9 mb 0.00 in0.0 mm 0.00 in0.0 mm 0.00 in0.0 mm
09:40 PM 69.5°F20.8°C 54.1°F12.3°C 58% 9.0 mph SE14.5 kmh SE 15.0 mph24.1 kmh 29.95 in1014.2 mb 0.00 in0.0 mm 0.00 in0.0 mm 0.00 in0.0 mm
09:45 PM 68.2°F20.1°C 54.7°F12.6°C 62% 5.0 mph SE8.0 kmh SE 15.0 mph24.1 kmh 29.94 in1013.9 mb 0.00 in0.0 mm 0.00 in0.0 mm 0.00 in0.0 mm
09:50 PM 67.5°F19.7°C 54.9°F12.7°C 64% 5.0 mph SE8.0 kmh SE 15.0 mph24.1 kmh 29.95 in1014.2 mb 0.00 in0.0 mm 0.00 in0.0 mm 0.00 in0.0 mm
09:55 PM 67.1°F19.5°C 55.0°F12.8°C 65% 8.0 mph SE12.9 kmh SE 15.0 mph24.1 kmh 29.96 in1014.6 mb 0.00 in0.0 mm 0.00 in0.0 mm 0.00 in0.0 mm
10:00 PM 66.8°F19.3°C 55.1°F12.8°C 66% 4.0 mph E6.4 kmh E 15.0 mph24.1 kmh 29.96 in1014.6 mb 0.00 in0.0 mm 0.00 in0.0 mm 0.00 in0.0 mm
10:05 PM 66.5°F19.2°C 55.6°F13.1°C 68% 7.0 mph ESE11.3 kmh ESE 15.0 mph24.1 kmh 29.97 in1014.9 mb 0.00 in0.0 mm 0.00 in0.0 mm 0.00 in0.0 mm
10:10 PM 66.2°F19.0°C 56.1°F13.4°C 70% 12.0 mph SE19.3 kmh SE 15.0 mph24.1 kmh 29.98 in1015.2 mb 0.00 in0.0 mm 0.00 in0.0 mm 0.00 in0.0 mm
10:15 PM 65.9°F18.8°C 55.9°F13.3°C 70% 2.0 mph ESE3.2 kmh ESE 15.0 mph24.1 kmh 29.98 in1015.2 mb 0.00 in0.0 mm 0.00 in0.0 mm 0.00 in0.0 mm
10:20 PM 65.9°F18.8°C 55.9°F13.3°C 70% 3.0 mph ESE4.8 kmh ESE 15.0 mph24.1 kmh 29.99 in1015.6 mb 0.00 in0.0 mm 0.00 in0.0 mm 0.00 in0.0 mm
10:25 PM 66.1°F18.9°C 55.7°F13.2°C 69% 11.0 mph E17.7 kmh E 15.0 mph24.1 kmh 30.00 in1015.9 mb 0.00 in0.0 mm 0.00 in0.0 mm 0.00 in0.0 mm
10:30 PM 66.7°F19.3°C 55.0°F12.8°C 66% 13.0 mph E20.9 kmh E 16.0 mph25.7 kmh 30.01 in1016.3 mb 0.00 in0.0 mm 0.00 in0.0 mm 0.00 in0.0 mm
10:35 PM 66.9°F19.4°C 57.2°F14.0°C 71% 13.0 mph E20.9 kmh E 18.0 mph29.0 kmh 30.01 in1016.3 mb 0.00 in0.0 mm 0.00 in0.0 mm 0.00 in0.0 mm
10:40 PM 64.8°F18.2°C 57.8°F14.3°C 78% 9.0 mph E14.5 kmh E 18.0 mph29.0 kmh 30.01 in1016.3 mb 0.05 in1.3 mm 0.60 in15.2 mm 0.05 in1.3 mm
10:45 PM 63.2°F17.3°C 58.0°F14.4°C 83% 3.0 mph E4.8 kmh E 18.0 mph29.0 kmh 30.02 in1016.6 mb 0.07 in1.8 mm 0.24 in6.1 mm 0.07 in1.8 mm
10:50 PM 62.1°F16.7°C 57.5°F14.2°C 85% 1.0 mph E1.6 kmh E 18.0 mph29.0 kmh 30.01 in1016.3 mb 0.08 in2.0 mm 0.12 in3.0 mm 0.08 in2.0 mm
10:55 PM 61.5°F16.4°C 57.6°F14.2°C 87% 4.0 mph S6.4 kmh S 18.0 mph29.0 kmh 30.01 in1016.3 mb 0.09 in2.3 mm 0.12 in3.0 mm 0.09 in2.3 mm
11:00 PM 61.3°F16.3°C 57.7°F14.3°C 88% 2.0 mph S3.2 kmh S 18.0 mph29.0 kmh 30.01 in1016.3 mb 0.10 in2.5 mm 0.01 in0.3 mm 0.10 in2.5 mm
11:05 PM 61.0°F16.1°C 57.7°F14.3°C 89% 5.0 mph S8.0 kmh S 11.0 mph17.7 kmh 29.98 in1015.2 mb 0.12 in3.0 mm 0.24 in6.1 mm 0.12 in3.0 mm
11:10 PM 60.6°F15.9°C 57.7°F14.3°C 90% 2.0 mph SSW3.2 kmh SSW 11.0 mph17.7 kmh 29.96 in1014.6 mb 0.13 in3.3 mm 0.12 in3.0 mm 0.13 in3.3 mm
11:15 PM 60.8°F16.0°C 57.9°F14.4°C 90% 4.0 mph E6.4 kmh E 11.0 mph17.7 kmh 29.98 in1015.2 mb 0.13 in3.3 mm 0.00 in0.0 mm 0.13 in3.3 mm
11:20 PM 60.9°F16.1°C 58.0°F14.4°C 90% 7.0 mph S11.3 kmh S 14.0 mph22.5 kmh 29.99 in1015.6 mb 0.14 in3.6 mm 0.12 in3.0 mm 0.14 in3.6 mm
11:25 PM 60.8°F16.0°C 57.9°F14.4°C 90% 5.0 mph S8.0 kmh S 14.0 mph22.5 kmh 29.99 in1015.6 mb 0.14 in3.6 mm 0.00 in0.0 mm 0.14 in3.6 mm
11:30 PM 60.8°F16.0°C 57.9°F14.4°C 90% Calm Calm 14.0 mph22.5 kmh 29.99 in1015.6 mb 0.14 in3.6 mm 0.00 in0.0 mm 0.14 in3.6 mm
11:35 PM 60.7°F15.9°C 58.1°F14.5°C 91% 2.0 mph S3.2 kmh S 6.0 mph9.7 kmh 29.99 in1015.6 mb 0.15 in3.8 mm 0.12 in3.0 mm 0.15 in3.8 mm
11:40 PM 60.7°F15.9°C 58.1°F14.5°C 91% Calm Calm 6.0 mph9.7 kmh 29.99 in1015.6 mb 0.15 in3.8 mm 0.00 in0.0 mm 0.15 in3.8 mm
11:45 PM 60.8°F16.0°C 58.5°F14.7°C 92% Calm Calm 6.0 mph9.7 kmh 30.00 in1015.9 mb 0.15 in3.8 mm 0.00 in0.0 mm 0.15 in3.8 mm
11:50 PM 60.6°F15.9°C 58.0°F14.4°C 91% Calm Calm 6.0 mph9.7 kmh 30.00 in1015.9 mb 0.15 in3.8 mm 0.00 in0.0 mm 0.15 in3.8 mm
11:55 PM 60.9°F16.1°C 58.6°F14.8°C 92% Calm Calm 6.0 mph9.7 kmh 30.00 in1015.9 mb 0.15 in3.8 mm 0.00 in0.0 mm 0.15 in3.8 mm